createdAt,value
2023-06-11T00:01:47.906Z,3.90
2023-06-11T00:04:26.259Z,4.23
2023-06-11T00:06:56.082Z,3.60
2023-06-11T00:09:26.055Z,4.73
2023-06-11T00:11:56.625Z,4.50
2023-06-11T00:14:26.028Z,3.90
2023-06-11T00:16:54.591Z,3.90
2023-06-11T00:19:23.484Z,4.00
2023-06-11T00:21:52.448Z,3.97
2023-06-11T00:24:21.328Z,4.13
2023-06-11T00:26:50.333Z,3.83
2023-06-11T00:29:20.885Z,4.27
2023-06-11T00:31:49.834Z,5.47
2023-06-11T00:34:18.676Z,4.50
2023-06-11T00:36:47.707Z,4.87
2023-06-11T00:39:16.480Z,4.43
2023-06-11T00:41:47.013Z,4.60
2023-06-11T00:44:19.137Z,4.57
2023-06-11T00:46:52.637Z,4.60
2023-06-11T00:49:21.395Z,4.47
2023-06-11T00:51:50.365Z,4.60
2023-06-11T00:54:19.058Z,3.90
2023-06-11T00:56:48.010Z,5.60
2023-06-11T00:59:21.243Z,3.60
2023-06-11T01:02:02.241Z,3.43
2023-06-11T01:04:34.128Z,5.30
2023-06-11T01:07:10.349Z,4.27
2023-06-11T01:09:39.892Z,4.80
2023-06-11T01:12:09.756Z,4.60
2023-06-11T01:14:43.909Z,4.40
2023-06-11T01:17:18.953Z,4.93
2023-06-11T01:20:11.194Z,5.47
2023-06-11T01:23:05.904Z,4.27
2023-06-11T01:25:46.735Z,4.33
2023-06-11T01:28:32.448Z,4.27
2023-06-11T01:31:09.823Z,4.37
2023-06-11T01:33:40.695Z,4.50
2023-06-11T01:36:12.121Z,3.33
2023-06-11T01:38:46.560Z,4.03
2023-06-11T01:41:18.751Z,5.00
2023-06-11T01:43:48.708Z,4.03
2023-06-11T01:46:17.394Z,4.73
2023-06-11T01:48:48.794Z,4.73
2023-06-11T01:51:17.631Z,4.30
2023-06-11T01:53:46.692Z,4.20
2023-06-11T01:56:15.313Z,4.30
2023-06-11T01:58:46.730Z,4.60
2023-06-11T02:01:16.805Z,4.83
2023-06-11T02:03:45.888Z,4.00
2023-06-11T02:06:15.618Z,4.30
2023-06-11T02:08:44.510Z,4.13
2023-06-11T02:11:13.940Z,4.57
2023-06-11T02:13:42.460Z,4.50
2023-06-11T02:16:11.158Z,4.40
2023-06-11T02:18:41.150Z,3.67
2023-06-11T02:21:10.114Z,4.47
2023-06-11T02:23:39.035Z,4.10
2023-06-11T02:26:07.573Z,3.77
2023-06-11T02:28:36.530Z,3.97
2023-06-11T02:31:05.467Z,4.67
2023-06-11T02:33:34.109Z,3.87
2023-06-11T02:36:04.293Z,5.00
2023-06-11T02:38:32.819Z,4.43
2023-06-11T02:41:01.597Z,4.30
2023-06-11T02:43:30.226Z,4.37
2023-06-11T02:45:58.980Z,5.27
2023-06-11T02:48:27.597Z,4.57
2023-06-11T02:50:56.990Z,3.80
2023-06-11T02:53:27.031Z,4.30
2023-06-11T02:55:55.721Z,4.63
2023-06-11T02:58:24.587Z,5.13
2023-06-11T03:00:53.442Z,5.00
2023-06-11T03:03:21.985Z,4.20
2023-06-11T03:05:51.519Z,4.83
2023-06-11T03:08:20.234Z,3.60
2023-06-11T03:10:53.382Z,4.50
2023-06-11T03:13:22.296Z,4.17
2023-06-11T03:15:51.360Z,4.53
2023-06-11T03:18:20.086Z,4.10
2023-06-11T03:20:48.984Z,4.37
2023-06-11T03:23:17.871Z,4.90
2023-06-11T03:25:46.839Z,5.33
2023-06-11T03:28:16.862Z,4.23
2023-06-11T03:30:45.457Z,3.80
2023-06-11T03:33:14.114Z,8.10
2023-06-11T03:35:46.101Z,4.30
2023-06-11T03:38:14.581Z,3.80
2023-06-11T03:40:43.305Z,4.80
2023-06-11T03:43:11.940Z,4.60
2023-06-11T03:45:42.310Z,4.23
2023-06-11T03:48:10.837Z,4.10
2023-06-11T03:50:39.486Z,5.00
2023-06-11T03:53:08.732Z,4.80
2023-06-11T03:55:37.276Z,4.33
2023-06-11T03:58:05.922Z,4.07
2023-06-11T04:00:35.737Z,4.70
2023-06-11T04:03:06.005Z,4.50
2023-06-11T04:05:38.136Z,4.97
2023-06-11T04:08:07.393Z,4.97
2023-06-11T04:10:36.410Z,3.93
2023-06-11T04:13:04.942Z,4.23
2023-06-11T04:15:34.202Z,5.10
2023-06-11T04:18:03.035Z,5.80
2023-06-11T04:20:33.834Z,4.00
2023-06-11T04:23:02.476Z,3.43
2023-06-11T04:25:32.786Z,4.40
2023-06-11T04:28:01.360Z,5.53
2023-06-11T04:30:30.217Z,4.67
2023-06-11T04:32:59.300Z,4.10
2023-06-11T04:35:27.860Z,4.97
2023-06-11T04:37:58.361Z,4.40
2023-06-11T04:40:27.165Z,4.50
2023-06-11T04:42:55.773Z,4.57
2023-06-11T04:45:24.490Z,3.77
2023-06-11T04:47:53.135Z,3.90
2023-06-11T04:50:23.145Z,3.87
2023-06-11T04:52:53.508Z,4.70
2023-06-11T04:55:26.398Z,4.67
2023-06-11T04:57:56.350Z,4.50
2023-06-11T05:00:26.926Z,4.23
2023-06-11T05:02:55.933Z,4.30
2023-06-11T05:05:24.811Z,4.10
2023-06-11T05:07:53.639Z,4.13
2023-06-11T05:10:23.806Z,4.00
2023-06-11T05:12:52.386Z,4.60
2023-06-11T05:15:21.359Z,4.53
2023-06-11T05:17:52.163Z,4.50
2023-06-11T05:20:22.159Z,3.90
2023-06-11T05:22:55.006Z,3.80
2023-06-11T05:25:29.046Z,4.30
2023-06-11T05:28:02.366Z,4.27
2023-06-11T05:30:37.942Z,3.77
2023-06-11T05:33:08.402Z,3.33
2023-06-11T05:35:37.102Z,3.97
2023-06-11T05:38:07.503Z,4.27
2023-06-11T05:40:38.914Z,3.60
2023-06-11T05:43:08.116Z,4.93
2023-06-11T05:45:37.156Z,4.17
2023-06-11T05:48:07.574Z,3.90
2023-06-11T05:50:36.168Z,3.57
2023-06-11T05:53:05.487Z,4.00
2023-06-11T05:55:34.141Z,3.93
2023-06-11T05:58:04.400Z,4.00
2023-06-11T06:00:33.200Z,3.33
2023-06-11T06:03:05.707Z,3.13
2023-06-11T06:05:34.563Z,3.93
2023-06-11T06:08:03.377Z,3.67
2023-06-11T06:10:32.209Z,4.00
2023-06-11T06:13:00.790Z,3.63
2023-06-11T06:15:31.039Z,4.30
2023-06-11T06:18:00.221Z,4.30
2023-06-11T06:20:29.197Z,4.33
2023-06-11T06:22:57.892Z,3.77
2023-06-11T06:25:28.067Z,4.60
2023-06-11T06:27:57.948Z,3.80
2023-06-11T06:30:26.842Z,3.53
2023-06-11T06:32:58.758Z,3.40
2023-06-11T06:35:27.867Z,3.97
2023-06-11T06:37:59.524Z,3.63
2023-06-11T06:40:28.696Z,3.90
2023-06-11T06:42:58.320Z,4.13
2023-06-11T06:45:27.451Z,3.70
2023-06-11T06:47:58.039Z,3.47
2023-06-11T06:50:27.168Z,3.47
2023-06-11T06:52:56.427Z,2.73
2023-06-11T06:55:25.071Z,4.70
2023-06-11T06:57:54.307Z,2.87
2023-06-11T07:00:23.504Z,3.20
2023-06-11T07:02:52.226Z,3.03
2023-06-11T07:05:22.307Z,3.30
2023-06-11T07:07:51.440Z,3.57
2023-06-11T07:10:20.424Z,3.40
2023-06-11T07:12:49.675Z,3.53
2023-06-11T07:15:18.541Z,3.03
2023-06-11T07:17:47.650Z,3.40
2023-06-11T07:20:17.102Z,3.23
2023-06-11T07:22:47.688Z,2.10
2023-06-11T07:25:16.840Z,3.40
2023-06-11T07:27:45.630Z,4.10
2023-06-11T07:30:15.226Z,3.43
2023-06-11T07:32:44.071Z,3.50
2023-06-11T07:35:13.495Z,3.10
2023-06-11T07:37:42.404Z,3.30
2023-06-11T07:40:17.276Z,3.20
2023-06-11T07:42:48.602Z,4.10
2023-06-11T07:45:19.802Z,3.37
2023-06-11T07:47:50.961Z,3.57
2023-06-11T07:50:20.508Z,3.47
2023-06-11T07:52:49.510Z,3.33
2023-06-11T07:55:20.260Z,3.83
2023-06-11T07:57:48.927Z,3.30
2023-06-11T08:00:20.952Z,4.00
2023-06-11T08:02:52.593Z,2.90
2023-06-11T08:05:23.561Z,3.57
2023-06-11T08:07:53.783Z,4.30
2023-06-11T08:10:24.946Z,2.77
2023-06-11T08:12:54.116Z,3.40
2023-06-11T08:15:23.987Z,4.17
2023-06-11T08:17:53.655Z,2.87
2023-06-11T08:20:24.030Z,2.97
2023-06-11T08:22:57.947Z,3.20
2023-06-11T08:25:29.334Z,3.10
2023-06-11T08:27:58.889Z,3.17
2023-06-11T08:30:28.102Z,2.90
2023-06-11T08:32:57.968Z,3.10
2023-06-11T08:35:27.439Z,2.70
2023-06-11T08:37:58.953Z,3.60
2023-06-11T08:40:42.436Z,2.93
2023-06-11T08:43:21.193Z,3.77
2023-06-11T08:45:51.126Z,2.70
2023-06-11T08:48:25.940Z,3.73
2023-06-11T08:50:55.626Z,2.97
2023-06-11T08:53:27.492Z,3.00
2023-06-11T08:56:43.759Z,3.27
2023-06-11T08:59:14.377Z,2.20
2023-06-11T09:01:43.844Z,3.30
2023-06-11T09:04:12.803Z,2.17
2023-06-11T09:06:54.219Z,2.90
2023-06-11T09:09:23.414Z,2.87
2023-06-11T09:11:52.956Z,3.40
2023-06-11T09:14:24.324Z,2.70
2023-06-11T09:16:53.875Z,2.70
2023-06-11T09:19:24.035Z,2.60
2023-06-11T09:21:57.911Z,2.37
2023-06-11T09:24:30.437Z,3.23
2023-06-11T09:27:00.949Z,3.10
2023-06-11T09:29:32.153Z,2.63
2023-06-11T09:32:23.786Z,2.53
2023-06-11T09:35:05.490Z,2.70
2023-06-11T09:37:40.878Z,3.60
2023-06-11T09:40:15.416Z,2.57
2023-06-11T09:42:48.443Z,2.90
2023-06-11T09:45:23.004Z,2.20
2023-06-11T09:47:53.002Z,3.47
2023-06-11T09:50:24.515Z,2.13
2023-06-11T09:52:55.274Z,2.43
2023-06-11T09:55:27.673Z,3.00
2023-06-11T09:58:17.223Z,3.03
2023-06-11T10:00:49.702Z,3.07
2023-06-11T10:03:21.386Z,3.00
2023-06-11T10:06:08.293Z,3.20
2023-06-11T10:08:41.963Z,2.20
2023-06-11T10:11:17.811Z,2.40
2023-06-11T10:14:07.532Z,2.50
2023-06-11T10:16:41.833Z,2.73
2023-06-11T10:19:17.521Z,2.83
2023-06-11T10:21:51.084Z,3.50
2023-06-11T10:24:28.708Z,2.60
2023-06-11T10:27:19.819Z,2.67
2023-06-11T10:29:57.647Z,2.80
2023-06-11T10:32:36.197Z,3.40
2023-06-11T10:35:09.797Z,3.10
2023-06-11T10:37:53.239Z,3.10
2023-06-11T10:40:59.194Z,3.50
2023-06-11T10:43:29.001Z,3.63
2023-06-11T10:46:05.105Z,3.17
2023-06-11T10:48:38.706Z,2.92
2023-06-11T10:51:09.730Z,2.73
2023-06-11T10:53:41.943Z,2.80
2023-06-11T10:56:12.788Z,2.67
2023-06-11T10:58:44.947Z,3.03
2023-06-11T11:01:14.300Z,3.10
2023-06-11T11:03:47.516Z,4.47
2023-06-11T11:06:37.634Z,3.27
2023-06-11T11:09:07.366Z,2.30
2023-06-11T11:11:39.944Z,2.70
2023-06-11T11:14:12.870Z,2.70
2023-06-11T11:16:42.067Z,3.30
2023-06-11T11:19:16.800Z,3.20
2023-06-11T11:21:57.647Z,3.17
2023-06-11T11:24:47.182Z,3.20
2023-06-11T11:27:25.332Z,3.30
2023-06-11T11:30:01.476Z,3.47
2023-06-11T11:32:34.832Z,3.00
2023-06-11T11:35:08.495Z,3.90
2023-06-11T11:37:39.417Z,3.40
2023-06-11T11:40:13.322Z,3.57
2023-06-11T11:42:51.433Z,3.33
2023-06-11T11:45:25.000Z,3.43
2023-06-11T11:47:56.223Z,3.10
2023-06-11T11:50:35.354Z,3.33
2023-06-11T11:53:23.101Z,3.53
2023-06-11T11:56:05.343Z,5.20
2023-06-11T11:58:47.812Z,3.17
2023-06-11T12:01:43.559Z,2.83
2023-06-11T12:04:12.706Z,3.40
2023-06-11T12:06:44.706Z,2.77
2023-06-11T12:09:16.983Z,3.37
2023-06-11T12:12:03.924Z,2.77
2023-06-11T12:14:34.105Z,3.10
2023-06-11T12:17:11.832Z,3.40
2023-06-11T12:19:42.700Z,2.83
2023-06-11T12:22:21.956Z,3.07
2023-06-11T12:25:06.817Z,3.57
2023-06-11T12:27:41.014Z,3.40
2023-06-11T12:30:20.284Z,3.40
2023-06-11T12:32:50.564Z,3.43
2023-06-11T12:35:20.480Z,2.33
2023-06-11T12:37:52.421Z,3.10
2023-06-11T12:40:29.647Z,3.47
2023-06-11T12:43:01.415Z,2.90
2023-06-11T12:45:42.641Z,3.80
2023-06-11T12:48:13.436Z,3.30
2023-06-11T12:50:43.429Z,4.50
2023-06-11T12:53:17.632Z,3.07
2023-06-11T12:55:47.165Z,4.30
2023-06-11T13:05:46.186Z,2.73
2023-06-11T13:08:16.792Z,3.53
2023-06-11T13:10:47.464Z,3.23
2023-06-11T13:13:19.909Z,3.27
2023-06-11T13:15:49.398Z,3.30
2023-06-11T13:18:19.174Z,3.37
2023-06-11T13:21:00.836Z,3.33
2023-06-11T13:23:49.006Z,3.33
2023-06-11T13:29:45.189Z,3.47
2023-06-11T13:32:18.674Z,4.73
2023-06-11T13:34:48.698Z,2.87
2023-06-11T13:37:22.935Z,3.50
2023-06-11T13:39:55.622Z,3.67
2023-06-11T13:42:32.076Z,3.83
2023-06-11T13:45:01.355Z,4.20
2023-06-11T13:47:33.636Z,2.90
2023-06-11T13:50:05.379Z,3.90
2023-06-11T13:52:34.434Z,3.50
2023-06-11T13:55:06.982Z,3.00
2023-06-11T13:57:37.798Z,3.10
2023-06-11T14:00:08.544Z,2.93
2023-06-11T14:02:37.666Z,4.27
2023-06-11T14:05:08.335Z,2.70
2023-06-11T14:07:38.109Z,3.17
2023-06-11T14:10:11.193Z,2.60
2023-06-11T14:12:41.306Z,3.80
2023-06-11T14:15:14.644Z,3.63
2023-06-11T14:17:44.098Z,3.87
2023-06-11T14:20:17.695Z,3.10
2023-06-11T14:22:47.982Z,3.10
2023-06-11T14:25:22.201Z,3.57
2023-06-11T14:27:57.914Z,4.13
2023-06-11T14:30:27.341Z,3.33
2023-06-11T14:32:56.535Z,3.17
2023-06-11T14:35:44.108Z,3.90
2023-06-11T14:38:15.049Z,3.70
2023-06-11T14:40:57.705Z,3.10
2023-06-11T14:43:48.810Z,3.10
2023-06-11T14:46:28.849Z,3.83
2023-06-11T14:49:10.838Z,4.17
2023-06-11T14:51:48.762Z,3.15
2023-06-11T14:54:18.878Z,2.90
2023-06-11T14:56:54.911Z,4.47
2023-06-11T14:59:29.239Z,3.83
2023-06-11T15:01:59.213Z,4.20
2023-06-11T15:04:29.168Z,4.50
2023-06-11T15:07:29.340Z,4.00
2023-06-11T15:10:08.269Z,3.67
2023-06-11T15:12:43.461Z,3.07
2023-06-11T15:15:14.237Z,3.97
2023-06-11T15:17:43.748Z,2.97
2023-06-11T15:20:14.226Z,2.93
2023-06-11T15:22:44.995Z,4.07
2023-06-11T15:25:14.080Z,3.70
2023-06-11T15:27:44.586Z,3.67
2023-06-11T15:30:15.475Z,4.37
2023-06-11T15:32:45.007Z,2.90
2023-06-11T15:35:13.973Z,4.80
2023-06-11T15:37:44.653Z,3.40
2023-06-11T15:40:15.477Z,3.83
2023-06-11T15:42:47.216Z,3.97
2023-06-11T15:45:19.042Z,3.30
2023-06-11T15:47:51.447Z,4.50
2023-06-11T15:50:33.490Z,3.50
2023-06-11T15:53:14.237Z,3.70
2023-06-11T15:55:49.311Z,3.40
2023-06-11T15:58:31.712Z,2.90
2023-06-11T16:01:01.756Z,3.60
2023-06-11T16:03:42.638Z,4.93
2023-06-11T16:06:18.231Z,3.33
2023-06-11T16:08:47.677Z,3.40
2023-06-11T16:11:31.837Z,3.73
2023-06-11T16:14:04.280Z,3.90
2023-06-11T16:16:34.035Z,3.30
2023-06-11T16:19:08.548Z,4.17
2023-06-11T16:21:45.159Z,3.00
2023-06-11T16:24:14.324Z,3.87
2023-06-11T16:26:49.661Z,3.67
2023-06-11T16:29:21.987Z,3.10
2023-06-11T16:31:58.238Z,3.40
2023-06-11T16:34:30.696Z,3.50
2023-06-11T16:37:00.158Z,3.20
2023-06-11T16:39:29.235Z,4.13
2023-06-11T16:41:58.651Z,3.60
2023-06-11T16:44:29.984Z,4.33
2023-06-11T16:47:04.314Z,3.80
2023-06-11T16:49:48.944Z,3.63
2023-06-11T16:52:19.189Z,4.37
2023-06-11T16:55:10.289Z,3.10
2023-06-11T16:57:45.099Z,3.40
2023-06-11T17:00:51.885Z,3.73
2023-06-11T17:03:27.499Z,3.37
2023-06-11T17:06:05.055Z,4.03
2023-06-11T17:08:36.275Z,3.00
2023-06-11T17:11:17.483Z,3.13
2023-06-11T17:13:49.851Z,4.20
2023-06-11T17:16:21.504Z,3.50
2023-06-11T17:18:59.976Z,3.50
2023-06-11T17:21:30.870Z,2.70
2023-06-11T17:24:04.372Z,4.23
2023-06-11T17:26:42.877Z,3.50
2023-06-11T17:29:18.058Z,3.20
2023-06-11T17:31:49.287Z,2.80
2023-06-11T17:34:21.945Z,3.17
2023-06-11T17:36:57.634Z,4.80
2023-06-11T17:39:29.660Z,3.77
2023-06-11T17:41:58.701Z,3.33
2023-06-11T17:44:27.564Z,3.57
2023-06-11T17:47:02.750Z,2.97
2023-06-11T17:49:49.907Z,3.23
2023-06-11T17:52:57.312Z,2.80
2023-06-11T17:56:26.940Z,3.30
2023-06-11T18:01:48.842Z,2.93
2023-06-11T18:11:45.505Z,3.13
2023-06-11T18:17:39.508Z,1.97
2023-06-11T18:20:16.892Z,2.67
2023-06-11T18:22:52.115Z,3.13
2023-06-11T18:25:37.920Z,2.57
2023-06-11T18:28:12.943Z,2.93
2023-06-11T18:30:49.295Z,2.53
2023-06-11T18:33:27.721Z,2.43
2023-06-11T18:36:47.262Z,2.57
2023-06-11T18:39:19.381Z,2.80
2023-06-11T18:41:48.685Z,2.47
2023-06-11T18:44:19.248Z,2.40
2023-06-11T18:46:49.976Z,3.20
2023-06-11T18:49:20.577Z,2.63
2023-06-11T18:51:49.393Z,2.10
2023-06-11T18:54:18.321Z,2.80
2023-06-11T18:56:47.355Z,3.37
2023-06-11T18:59:16.256Z,2.93
2023-06-11T19:01:45.644Z,2.70
2023-06-11T19:04:25.488Z,1.93
2023-06-11T19:06:55.398Z,2.57
2023-06-11T19:09:24.344Z,2.40
2023-06-11T19:11:56.776Z,3.50
2023-06-11T19:14:27.543Z,3.10
2023-06-11T19:16:56.620Z,2.67
2023-06-11T19:19:26.987Z,2.30
2023-06-11T19:22:06.738Z,1.93
2023-06-11T19:24:37.001Z,2.00
2023-06-11T19:27:08.655Z,2.80
2023-06-11T19:30:15.486Z,2.57
2023-06-11T19:32:44.949Z,2.30
2023-06-11T19:35:17.604Z,2.50
2023-06-11T19:37:47.002Z,2.40
2023-06-11T19:40:17.762Z,3.87
2023-06-11T19:42:46.843Z,2.63
2023-06-11T19:45:21.855Z,2.90
2023-06-11T19:48:23.489Z,3.00
2023-06-11T19:50:59.550Z,3.10
2023-06-11T19:53:42.108Z,2.73
2023-06-11T19:56:15.929Z,2.10
2023-06-11T19:58:45.028Z,3.33
2023-06-11T20:01:15.725Z,3.00
2023-06-11T20:03:45.712Z,2.37
2023-06-11T20:06:18.108Z,2.60
2023-06-11T20:08:47.239Z,3.27
2023-06-11T20:11:19.708Z,3.10
2023-06-11T20:13:48.882Z,2.60
2023-06-11T20:16:23.283Z,2.37
2023-06-11T20:19:04.621Z,3.47
2023-06-11T20:22:06.079Z,2.90
2023-06-11T20:25:07.997Z,2.20
2023-06-11T20:28:01.575Z,2.40
2023-06-11T20:30:33.532Z,2.47
2023-06-11T20:33:24.752Z,2.30
2023-06-11T20:35:55.242Z,3.67
2023-06-11T20:38:27.306Z,2.70
2023-06-11T20:41:01.594Z,2.03
2023-06-11T20:43:33.288Z,2.57
2023-06-11T20:46:11.614Z,2.63
2023-06-11T20:48:53.057Z,1.93
2023-06-11T20:51:24.264Z,2.97
2023-06-11T20:54:08.618Z,3.50
2023-06-11T20:56:44.815Z,2.50
2023-06-11T20:59:19.972Z,2.17
2023-06-11T21:01:49.184Z,3.30
2023-06-11T21:04:19.834Z,3.00
2023-06-11T21:06:48.983Z,2.53
2023-06-11T21:09:32.764Z,4.73
2023-06-11T21:12:39.213Z,2.33
2023-06-11T21:15:40.251Z,1.87
2023-06-11T21:18:30.786Z,3.10
2023-06-11T21:21:55.870Z,3.20
2023-06-11T21:24:33.732Z,2.53
2023-06-11T21:27:04.802Z,2.87
2023-06-11T21:29:58.952Z,2.43
2023-06-11T21:32:39.899Z,2.67
2023-06-11T21:35:16.029Z,2.20
2023-06-11T21:37:46.454Z,2.87
2023-06-11T21:40:15.986Z,2.50
2023-06-11T21:42:45.603Z,2.37
2023-06-11T21:45:16.716Z,2.90
2023-06-11T21:47:52.028Z,2.67
2023-06-11T21:50:21.835Z,2.60
2023-06-11T21:52:53.880Z,3.07
2023-06-11T21:55:22.854Z,2.00
2023-06-11T21:57:53.400Z,3.13
2023-06-11T22:00:24.576Z,2.40
2023-06-11T22:02:55.368Z,2.50
2023-06-11T22:05:27.289Z,2.90
2023-06-11T22:11:38.429Z,3.00
2023-06-11T22:18:07.869Z,2.03
2023-06-11T22:20:37.004Z,2.17
2023-06-11T22:27:13.505Z,2.57
2023-06-11T22:29:42.220Z,2.50
2023-06-11T22:32:12.989Z,2.70
2023-06-11T22:34:43.388Z,2.83
2023-06-11T22:37:12.266Z,3.27
2023-06-11T22:39:41.263Z,2.53
2023-06-11T22:45:03.873Z,2.10
2023-06-11T22:51:03.336Z,2.73
2023-06-11T22:51:11.680Z,2.63
2023-06-11T22:53:40.690Z,2.40
2023-06-11T22:56:10.280Z,2.97
2023-06-11T23:02:26.054Z,3.00
2023-06-11T23:05:43.424Z,2.87
2023-06-11T23:09:16.432Z,2.17
2023-06-11T23:12:12.807Z,2.50
2023-06-11T23:15:31.122Z,2.57
2023-06-11T23:21:43.854Z,3.20
2023-06-11T23:28:43.389Z,2.30
2023-06-11T23:32:13.780Z,2.70
2023-06-11T23:35:11.073Z,2.97
2023-06-11T23:39:10.600Z,3.00
2023-06-11T23:41:42.982Z,2.80
2023-06-11T23:44:11.870Z,2.50
2023-06-11T23:46:49.401Z,2.63
2023-06-11T23:49:18.854Z,2.00
2023-06-11T23:54:39.521Z,2.00
2023-06-11T23:57:12.176Z,2.90
